sensor_id;sensor_type;location;lat;lon;timestamp;temperature;humidity
36800;DHT22;22752;51.960;5.886;2022-09-09T00:00:59;15.10;99.90
36800;DHT22;22752;51.960;5.886;2022-09-09T00:03:38;15.10;99.90
36800;DHT22;22752;51.960;5.886;2022-09-09T00:06:30;15.10;99.90
36800;DHT22;22752;51.960;5.886;2022-09-09T00:17:00;15.20;99.90
36800;DHT22;22752;51.960;5.886;2022-09-09T00:19:33;15.20;99.90
36800;DHT22;22752;51.960;5.886;2022-09-09T00:22:21;15.10;99.90
36800;DHT22;22752;51.960;5.886;2022-09-09T00:24:55;15.10;99.90
36800;DHT22;22752;51.960;5.886;2022-09-09T00:27:37;15.10;99.90
36800;DHT22;22752;51.960;5.886;2022-09-09T00:30:24;15.10;99.90
36800;DHT22;22752;51.960;5.886;2022-09-09T00:32:54;15.10;99.90
36800;DHT22;22752;51.960;5.886;2022-09-09T00:35:29;15.10;99.90
36800;DHT22;22752;51.960;5.886;2022-09-09T00:38:00;15.10;99.90
36800;DHT22;22752;51.960;5.886;2022-09-09T00:43:21;15.20;99.90
36800;DHT22;22752;51.960;5.886;2022-09-09T00:46:12;15.30;99.90
36800;DHT22;22752;51.960;5.886;2022-09-09T00:57:13;15.20;99.90
36800;DHT22;22752;51.960;5.886;2022-09-09T01:02:53;15.00;99.90
36800;DHT22;22752;51.960;5.886;2022-09-09T01:08:01;14.80;99.90
36800;DHT22;22752;51.960;5.886;2022-09-09T01:10:49;14.70;99.90
36800;DHT22;22752;51.960;5.886;2022-09-09T01:13:29;14.70;99.90
36800;DHT22;22752;51.960;5.886;2022-09-09T01:15:57;14.60;99.90
36800;DHT22;22752;51.960;5.886;2022-09-09T01:18:27;14.50;99.90
36800;DHT22;22752;51.960;5.886;2022-09-09T01:24:27;14.40;99.90
36800;DHT22;22752;51.960;5.886;2022-09-09T01:27:01;14.40;99.90
36800;DHT22;22752;51.960;5.886;2022-09-09T01:29:27;14.30;99.90
36800;DHT22;22752;51.960;5.886;2022-09-09T01:34:19;14.20;99.90
36800;DHT22;22752;51.960;5.886;2022-09-09T01:36:59;14.20;99.90
36800;DHT22;22752;51.960;5.886;2022-09-09T01:39:26;14.20;99.90
36800;DHT22;22752;51.960;5.886;2022-09-09T01:41:53;14.10;99.90
36800;DHT22;22752;51.960;5.886;2022-09-09T01:44:20;14.10;99.90
36800;DHT22;22752;51.960;5.886;2022-09-09T01:46:47;14.00;99.90
36800;DHT22;22752;51.960;5.886;2022-09-09T01:49:12;14.00;99.90
36800;DHT22;22752;51.960;5.886;2022-09-09T01:51:39;13.90;99.90
36800;DHT22;22752;51.960;5.886;2022-09-09T01:54:07;13.90;99.90
36800;DHT22;22752;51.960;5.886;2022-09-09T01:56:55;13.90;99.90
36800;DHT22;22752;51.960;5.886;2022-09-09T01:59:53;13.80;99.90
36800;DHT22;22752;51.960;5.886;2022-09-09T02:02:55;13.80;99.90
36800;DHT22;22752;51.960;5.886;2022-09-09T02:05:38;13.80;99.90
36800;DHT22;22752;51.960;5.886;2022-09-09T02:08:11;13.80;99.90
36800;DHT22;22752;51.960;5.886;2022-09-09T02:10:50;13.80;99.90
36800;DHT22;22752;51.960;5.886;2022-09-09T02:13:21;13.70;99.90
36800;DHT22;22752;51.960;5.886;2022-09-09T02:18:24;13.60;99.90
36800;DHT22;22752;51.960;5.886;2022-09-09T02:20:52;13.60;99.90
36800;DHT22;22752;51.960;5.886;2022-09-09T02:23:19;13.50;99.90
36800;DHT22;22752;51.960;5.886;2022-09-09T02:25:46;13.50;99.90
36800;DHT22;22752;51.960;5.886;2022-09-09T02:28:13;13.40;99.90
36800;DHT22;22752;51.960;5.886;2022-09-09T02:30:42;13.30;99.90
36800;DHT22;22752;51.960;5.886;2022-09-09T02:33:12;13.30;99.90
36800;DHT22;22752;51.960;5.886;2022-09-09T02:35:39;13.20;99.90
36800;DHT22;22752;51.960;5.886;2022-09-09T02:38:10;13.20;99.90
36800;DHT22;22752;51.960;5.886;2022-09-09T02:40:37;13.10;99.90
36800;DHT22;22752;51.960;5.886;2022-09-09T02:43:03;13.10;99.90
36800;DHT22;22752;51.960;5.886;2022-09-09T02:45:41;13.10;99.90
36800;DHT22;22752;51.960;5.886;2022-09-09T02:48:17;13.10;99.90
36800;DHT22;22752;51.960;5.886;2022-09-09T02:51:00;13.00;99.90
36800;DHT22;22752;51.960;5.886;2022-09-09T02:53:37;13.00;99.90
36800;DHT22;22752;51.960;5.886;2022-09-09T02:56:16;12.90;99.90
36800;DHT22;22752;51.960;5.886;2022-09-09T02:58:42;12.90;99.90
36800;DHT22;22752;51.960;5.886;2022-09-09T03:01:08;12.90;99.90
36800;DHT22;22752;51.960;5.886;2022-09-09T03:03:34;12.90;99.90
36800;DHT22;22752;51.960;5.886;2022-09-09T03:06:00;12.80;99.90
36800;DHT22;22752;51.960;5.886;2022-09-09T03:08:26;12.90;99.90
36800;DHT22;22752;51.960;5.886;2022-09-09T03:10:54;12.90;99.90
36800;DHT22;22752;51.960;5.886;2022-09-09T03:13:20;12.80;99.90
36800;DHT22;22752;51.960;5.886;2022-09-09T03:15:47;12.80;99.90
36800;DHT22;22752;51.960;5.886;2022-09-09T03:18:13;12.80;99.90
36800;DHT22;22752;51.960;5.886;2022-09-09T03:20:39;12.80;99.90
36800;DHT22;22752;51.960;5.886;2022-09-09T03:23:07;12.80;99.90
36800;DHT22;22752;51.960;5.886;2022-09-09T03:25:33;12.80;99.90
36800;DHT22;22752;51.960;5.886;2022-09-09T03:27:59;12.80;99.90
36800;DHT22;22752;51.960;5.886;2022-09-09T03:30:26;12.80;99.90
36800;DHT22;22752;51.960;5.886;2022-09-09T03:32:51;12.80;99.90
36800;DHT22;22752;51.960;5.886;2022-09-09T03:35:17;12.90;99.90
36800;DHT22;22752;51.960;5.886;2022-09-09T03:37:43;12.90;99.90
36800;DHT22;22752;51.960;5.886;2022-09-09T03:40:10;13.00;99.90
36800;DHT22;22752;51.960;5.886;2022-09-09T03:42:36;13.10;99.90
36800;DHT22;22752;51.960;5.886;2022-09-09T03:45:06;13.10;99.90
36800;DHT22;22752;51.960;5.886;2022-09-09T03:47:33;13.10;99.90
36800;DHT22;22752;51.960;5.886;2022-09-09T03:49:58;13.10;99.90
36800;DHT22;22752;51.960;5.886;2022-09-09T03:52:24;13.20;99.90
36800;DHT22;22752;51.960;5.886;2022-09-09T03:54:52;13.20;99.90
36800;DHT22;22752;51.960;5.886;2022-09-09T03:57:18;13.20;99.90
36800;DHT22;22752;51.960;5.886;2022-09-09T03:59:44;13.30;99.90
36800;DHT22;22752;51.960;5.886;2022-09-09T04:02:10;13.40;99.90
36800;DHT22;22752;51.960;5.886;2022-09-09T04:04:35;13.50;99.90
36800;DHT22;22752;51.960;5.886;2022-09-09T04:07:01;13.60;99.90
36800;DHT22;22752;51.960;5.886;2022-09-09T04:09:27;13.60;99.90
36800;DHT22;22752;51.960;5.886;2022-09-09T04:11:52;13.70;99.90
36800;DHT22;22752;51.960;5.886;2022-09-09T04:14:19;13.80;99.90
36800;DHT22;22752;51.960;5.886;2022-09-09T04:16:44;13.80;99.90
36800;DHT22;22752;51.960;5.886;2022-09-09T04:19:11;13.90;99.90
36800;DHT22;22752;51.960;5.886;2022-09-09T04:21:40;14.00;99.90
36800;DHT22;22752;51.960;5.886;2022-09-09T04:24:09;14.10;99.90
36800;DHT22;22752;51.960;5.886;2022-09-09T04:26:36;14.20;99.90
36800;DHT22;22752;51.960;5.886;2022-09-09T04:29:02;14.20;99.90
36800;DHT22;22752;51.960;5.886;2022-09-09T04:31:28;14.30;99.90
36800;DHT22;22752;51.960;5.886;2022-09-09T04:33:54;14.30;99.90
36800;DHT22;22752;51.960;5.886;2022-09-09T04:36:20;14.30;99.90
36800;DHT22;22752;51.960;5.886;2022-09-09T04:38:46;14.40;99.90
36800;DHT22;22752;51.960;5.886;2022-09-09T04:41:12;14.40;99.90
36800;DHT22;22752;51.960;5.886;2022-09-09T04:43:38;14.40;99.90
36800;DHT22;22752;51.960;5.886;2022-09-09T04:46:05;14.40;99.90
36800;DHT22;22752;51.960;5.886;2022-09-09T04:48:31;14.50;99.90
36800;DHT22;22752;51.960;5.886;2022-09-09T04:51:08;14.50;99.90
36800;DHT22;22752;51.960;5.886;2022-09-09T04:53:36;14.50;99.90
36800;DHT22;22752;51.960;5.886;2022-09-09T04:56:12;14.60;99.90
36800;DHT22;22752;51.960;5.886;2022-09-09T04:58:39;14.60;99.90
36800;DHT22;22752;51.960;5.886;2022-09-09T05:01:06;14.60;99.90
36800;DHT22;22752;51.960;5.886;2022-09-09T05:03:33;14.60;99.90
36800;DHT22;22752;51.960;5.886;2022-09-09T05:06:06;14.70;99.90
36800;DHT22;22752;51.960;5.886;2022-09-09T05:08:34;14.70;99.90
36800;DHT22;22752;51.960;5.886;2022-09-09T05:10:59;14.80;99.90
36800;DHT22;22752;51.960;5.886;2022-09-09T05:13:26;14.80;99.90
36800;DHT22;22752;51.960;5.886;2022-09-09T05:15:53;14.90;99.90
36800;DHT22;22752;51.960;5.886;2022-09-09T05:18:19;14.90;99.90
36800;DHT22;22752;51.960;5.886;2022-09-09T05:20:45;14.90;99.90
36800;DHT22;22752;51.960;5.886;2022-09-09T05:23:10;14.90;99.90
36800;DHT22;22752;51.960;5.886;2022-09-09T05:25:39;14.90;99.90
36800;DHT22;22752;51.960;5.886;2022-09-09T05:28:05;15.00;99.90
36800;DHT22;22752;51.960;5.886;2022-09-09T05:30:33;15.00;99.90
36800;DHT22;22752;51.960;5.886;2022-09-09T05:32:59;15.10;99.90
36800;DHT22;22752;51.960;5.886;2022-09-09T05:35:25;15.10;99.90
36800;DHT22;22752;51.960;5.886;2022-09-09T05:37:50;15.10;99.90
36800;DHT22;22752;51.960;5.886;2022-09-09T05:40:16;15.10;99.90
36800;DHT22;22752;51.960;5.886;2022-09-09T05:42:42;15.10;99.90
36800;DHT22;22752;51.960;5.886;2022-09-09T05:45:08;15.20;99.90
36800;DHT22;22752;51.960;5.886;2022-09-09T05:47:35;15.20;99.90
36800;DHT22;22752;51.960;5.886;2022-09-09T05:50:03;15.20;99.90
36800;DHT22;22752;51.960;5.886;2022-09-09T05:52:29;15.20;99.90
36800;DHT22;22752;51.960;5.886;2022-09-09T05:54:54;15.30;99.90
36800;DHT22;22752;51.960;5.886;2022-09-09T05:57:22;15.30;99.90
36800;DHT22;22752;51.960;5.886;2022-09-09T05:59:48;15.40;99.90
36800;DHT22;22752;51.960;5.886;2022-09-09T06:02:13;15.60;99.90
36800;DHT22;22752;51.960;5.886;2022-09-09T06:04:39;15.90;99.90
36800;DHT22;22752;51.960;5.886;2022-09-09T06:07:05;16.30;99.90
36800;DHT22;22752;51.960;5.886;2022-09-09T06:09:31;16.80;99.90
36800;DHT22;22752;51.960;5.886;2022-09-09T06:11:57;17.40;99.90
36800;DHT22;22752;51.960;5.886;2022-09-09T06:14:23;17.90;99.90
36800;DHT22;22752;51.960;5.886;2022-09-09T06:16:51;18.30;99.90
36800;DHT22;22752;51.960;5.886;2022-09-09T06:19:16;18.60;99.90
36800;DHT22;22752;51.960;5.886;2022-09-09T06:21:42;18.70;99.90
36800;DHT22;22752;51.960;5.886;2022-09-09T06:24:10;18.50;99.90
36800;DHT22;22752;51.960;5.886;2022-09-09T06:26:39;18.10;99.90
36800;DHT22;22752;51.960;5.886;2022-09-09T06:29:08;17.90;99.90
36800;DHT22;22752;51.960;5.886;2022-09-09T06:31:35;18.10;99.90
36800;DHT22;22752;51.960;5.886;2022-09-09T06:34:04;18.40;99.90
36800;DHT22;22752;51.960;5.886;2022-09-09T06:36:32;18.30;99.90
36800;DHT22;22752;51.960;5.886;2022-09-09T06:38:59;18.10;99.90
36800;DHT22;22752;51.960;5.886;2022-09-09T06:41:27;17.80;99.90
36800;DHT22;22752;51.960;5.886;2022-09-09T06:43:53;17.60;99.90
36800;DHT22;22752;51.960;5.886;2022-09-09T06:46:22;17.50;99.90
36800;DHT22;22752;51.960;5.886;2022-09-09T06:48:48;17.60;99.90
36800;DHT22;22752;51.960;5.886;2022-09-09T06:51:22;18.00;99.90
36800;DHT22;22752;51.960;5.886;2022-09-09T06:53:51;18.00;99.90
36800;DHT22;22752;51.960;5.886;2022-09-09T06:56:18;18.00;99.90
36800;DHT22;22752;51.960;5.886;2022-09-09T06:58:45;18.20;99.90
36800;DHT22;22752;51.960;5.886;2022-09-09T07:01:15;18.70;99.90
36800;DHT22;22752;51.960;5.886;2022-09-09T07:03:42;19.30;99.90
36800;DHT22;22752;51.960;5.886;2022-09-09T07:06:14;19.80;99.90
36800;DHT22;22752;51.960;5.886;2022-09-09T07:08:42;20.20;99.90
36800;DHT22;22752;51.960;5.886;2022-09-09T07:11:09;20.30;99.90
36800;DHT22;22752;51.960;5.886;2022-09-09T07:13:35;20.20;99.90
36800;DHT22;22752;51.960;5.886;2022-09-09T07:16:20;20.10;99.90
36800;DHT22;22752;51.960;5.886;2022-09-09T07:18:46;19.90;99.90
36800;DHT22;22752;51.960;5.886;2022-09-09T07:21:13;19.40;99.90
36800;DHT22;22752;51.960;5.886;2022-09-09T07:23:40;19.10;99.90
36800;DHT22;22752;51.960;5.886;2022-09-09T07:26:14;18.90;99.90
36800;DHT22;22752;51.960;5.886;2022-09-09T07:28:41;19.00;99.90
36800;DHT22;22752;51.960;5.886;2022-09-09T07:31:15;19.00;99.90
36800;DHT22;22752;51.960;5.886;2022-09-09T07:33:42;19.10;99.90
36800;DHT22;22752;51.960;5.886;2022-09-09T07:36:10;19.40;99.90
36800;DHT22;22752;51.960;5.886;2022-09-09T07:38:39;19.50;99.90
36800;DHT22;22752;51.960;5.886;2022-09-09T07:41:07;19.80;99.90
36800;DHT22;22752;51.960;5.886;2022-09-09T07:43:40;19.90;99.90
36800;DHT22;22752;51.960;5.886;2022-09-09T07:46:08;19.90;99.90
36800;DHT22;22752;51.960;5.886;2022-09-09T07:48:34;19.80;99.90
36800;DHT22;22752;51.960;5.886;2022-09-09T07:51:12;19.80;99.90
36800;DHT22;22752;51.960;5.886;2022-09-09T07:53:38;19.60;99.90
36800;DHT22;22752;51.960;5.886;2022-09-09T07:56:07;19.30;99.90
36800;DHT22;22752;51.960;5.886;2022-09-09T07:58:35;19.10;99.90
36800;DHT22;22752;51.960;5.886;2022-09-09T08:01:13;19.10;99.90
36800;DHT22;22752;51.960;5.886;2022-09-09T08:03:39;19.10;99.90
36800;DHT22;22752;51.960;5.886;2022-09-09T08:06:06;19.10;99.90
36800;DHT22;22752;51.960;5.886;2022-09-09T08:08:34;19.10;99.90
36800;DHT22;22752;51.960;5.886;2022-09-09T08:11:13;19.00;99.90
36800;DHT22;22752;51.960;5.886;2022-09-09T08:13:43;18.80;99.90
36800;DHT22;22752;51.960;5.886;2022-09-09T08:16:19;18.60;99.90
36800;DHT22;22752;51.960;5.886;2022-09-09T08:18:47;18.40;99.90
36800;DHT22;22752;51.960;5.886;2022-09-09T08:21:17;18.40;99.90
36800;DHT22;22752;51.960;5.886;2022-09-09T08:23:45;18.40;99.90
36800;DHT22;22752;51.960;5.886;2022-09-09T08:26:23;18.40;99.90
36800;DHT22;22752;51.960;5.886;2022-09-09T08:28:51;18.40;99.90
36800;DHT22;22752;51.960;5.886;2022-09-09T08:31:34;18.50;99.90
36800;DHT22;22752;51.960;5.886;2022-09-09T08:34:01;18.50;99.90
36800;DHT22;22752;51.960;5.886;2022-09-09T08:36:33;18.40;99.90
36800;DHT22;22752;51.960;5.886;2022-09-09T08:39:00;18.40;99.90
36800;DHT22;22752;51.960;5.886;2022-09-09T08:51:57;18.30;99.90
36800;DHT22;22752;51.960;5.886;2022-09-09T08:54:23;18.30;99.90
36800;DHT22;22752;51.960;5.886;2022-09-09T08:56:51;18.40;99.90
36800;DHT22;22752;51.960;5.886;2022-09-09T08:59:18;18.40;99.90
36800;DHT22;22752;51.960;5.886;2022-09-09T09:02:13;18.40;99.90
36800;DHT22;22752;51.960;5.886;2022-09-09T09:07:37;18.50;99.90
36800;DHT22;22752;51.960;5.886;2022-09-09T09:13:15;18.60;99.90
36800;DHT22;22752;51.960;5.886;2022-09-09T09:15:42;18.80;99.90
36800;DHT22;22752;51.960;5.886;2022-09-09T09:18:10;18.90;99.90
36800;DHT22;22752;51.960;5.886;2022-09-09T09:21:23;18.90;99.90
36800;DHT22;22752;51.960;5.886;2022-09-09T09:23:58;18.90;99.90
36800;DHT22;22752;51.960;5.886;2022-09-09T09:26:34;18.90;99.90
36800;DHT22;22752;51.960;5.886;2022-09-09T09:29:14;18.80;99.90
36800;DHT22;22752;51.960;5.886;2022-09-09T09:31:55;18.80;99.90
36800;DHT22;22752;51.960;5.886;2022-09-09T09:34:22;18.60;99.90
36800;DHT22;22752;51.960;5.886;2022-09-09T09:36:57;18.60;99.90
36800;DHT22;22752;51.960;5.886;2022-09-09T09:39:29;18.50;99.90
36800;DHT22;22752;51.960;5.886;2022-09-09T09:41:55;18.60;99.90
36800;DHT22;22752;51.960;5.886;2022-09-09T09:44:24;18.80;99.90
36800;DHT22;22752;51.960;5.886;2022-09-09T09:46:50;18.90;99.90
36800;DHT22;22752;51.960;5.886;2022-09-09T09:49:16;19.00;99.90
36800;DHT22;22752;51.960;5.886;2022-09-09T09:51:42;19.20;99.90
36800;DHT22;22752;51.960;5.886;2022-09-09T09:54:30;19.40;99.90
36800;DHT22;22752;51.960;5.886;2022-09-09T09:57:06;19.70;99.90
36800;DHT22;22752;51.960;5.886;2022-09-09T09:59:35;19.90;99.90
36800;DHT22;22752;51.960;5.886;2022-09-09T10:02:14;19.90;99.90
36800;DHT22;22752;51.960;5.886;2022-09-09T10:04:40;19.80;99.90
36800;DHT22;22752;51.960;5.886;2022-09-09T10:07:32;19.70;99.90
36800;DHT22;22752;51.960;5.886;2022-09-09T10:09:58;19.50;99.90
36800;DHT22;22752;51.960;5.886;2022-09-09T10:15:14;19.20;99.90
36800;DHT22;22752;51.960;5.886;2022-09-09T10:23:58;18.80;99.90
36800;DHT22;22752;51.960;5.886;2022-09-09T10:32:36;18.90;99.90
36800;DHT22;22752;51.960;5.886;2022-09-09T10:40:27;19.20;99.90
36800;DHT22;22752;51.960;5.886;2022-09-09T10:48:31;19.10;99.90
36800;DHT22;22752;51.960;5.886;2022-09-09T10:53:44;18.80;99.90
36800;DHT22;22752;51.960;5.886;2022-09-09T10:56:16;18.80;99.90
36800;DHT22;22752;51.960;5.886;2022-09-09T10:58:59;19.00;99.90
36800;DHT22;22752;51.960;5.886;2022-09-09T11:01:37;19.20;99.90
36800;DHT22;22752;51.960;5.886;2022-09-09T11:04:30;19.30;99.90
36800;DHT22;22752;51.960;5.886;2022-09-09T11:07:07;19.30;99.90
36800;DHT22;22752;51.960;5.886;2022-09-09T11:09:38;19.30;99.90
36800;DHT22;22752;51.960;5.886;2022-09-09T11:12:13;19.40;99.90
36800;DHT22;22752;51.960;5.886;2022-09-09T11:14:55;19.40;99.90
36800;DHT22;22752;51.960;5.886;2022-09-09T11:17:36;19.40;99.90
36800;DHT22;22752;51.960;5.886;2022-09-09T11:20:06;19.40;99.90
36800;DHT22;22752;51.960;5.886;2022-09-09T11:22:46;19.40;99.90
36800;DHT22;22752;51.960;5.886;2022-09-09T11:25:39;19.40;99.90
36800;DHT22;22752;51.960;5.886;2022-09-09T11:31:32;19.80;99.90
36800;DHT22;22752;51.960;5.886;2022-09-09T11:42:16;19.90;99.90
36800;DHT22;22752;51.960;5.886;2022-09-09T11:44:43;20.00;99.90
36800;DHT22;22752;51.960;5.886;2022-09-09T11:47:27;20.20;99.90
36800;DHT22;22752;51.960;5.886;2022-09-09T11:52:41;20.30;99.90
36800;DHT22;22752;51.960;5.886;2022-09-09T11:55:31;20.20;99.90
36800;DHT22;22752;51.960;5.886;2022-09-09T11:58:21;20.10;99.90
36800;DHT22;22752;51.960;5.886;2022-09-09T12:00:48;19.90;99.90
36800;DHT22;22752;51.960;5.886;2022-09-09T12:03:44;19.70;99.90
36800;DHT22;22752;51.960;5.886;2022-09-09T12:06:45;19.70;99.90
36800;DHT22;22752;51.960;5.886;2022-09-09T12:12:35;20.10;99.90
36800;DHT22;22752;51.960;5.886;2022-09-09T12:15:18;20.30;99.90
36800;DHT22;22752;51.960;5.886;2022-09-09T12:17:48;20.30;99.90
36800;DHT22;22752;51.960;5.886;2022-09-09T12:20:34;20.20;99.90
36800;DHT22;22752;51.960;5.886;2022-09-09T12:24:11;20.00;99.90
36800;DHT22;22752;51.960;5.886;2022-09-09T12:29:01;19.40;99.90
36800;DHT22;22752;51.960;5.886;2022-09-09T12:37:26;19.50;99.90
36800;DHT22;22752;51.960;5.886;2022-09-09T12:39:57;19.70;99.90
36800;DHT22;22752;51.960;5.886;2022-09-09T12:42:24;19.90;99.90
36800;DHT22;22752;51.960;5.886;2022-09-09T12:45:00;20.10;99.90
36800;DHT22;22752;51.960;5.886;2022-09-09T12:47:51;20.20;99.90
36800;DHT22;22752;51.960;5.886;2022-09-09T12:50:22;20.30;99.90
36800;DHT22;22752;51.960;5.886;2022-09-09T12:52:52;20.30;99.90
36800;DHT22;22752;51.960;5.886;2022-09-09T12:55:25;20.20;99.90
36800;DHT22;22752;51.960;5.886;2022-09-09T12:57:53;20.10;99.90
36800;DHT22;22752;51.960;5.886;2022-09-09T13:00:22;19.90;99.90
36800;DHT22;22752;51.960;5.886;2022-09-09T13:02:53;19.80;99.90
36800;DHT22;22752;51.960;5.886;2022-09-09T13:07:50;19.70;99.90
36800;DHT22;22752;51.960;5.886;2022-09-09T13:10:26;19.60;99.90
36800;DHT22;22752;51.960;5.886;2022-09-09T13:12:54;19.40;99.90
36800;DHT22;22752;51.960;5.886;2022-09-09T13:15:24;19.40;99.90
36800;DHT22;22752;51.960;5.886;2022-09-09T13:18:02;19.30;99.90
36800;DHT22;22752;51.960;5.886;2022-09-09T13:20:30;19.50;99.90
36800;DHT22;22752;51.960;5.886;2022-09-09T13:22:57;19.70;99.90
36800;DHT22;22752;51.960;5.886;2022-09-09T13:25:29;19.90;99.90
36800;DHT22;22752;51.960;5.886;2022-09-09T13:28:03;20.00;99.90
36800;DHT22;22752;51.960;5.886;2022-09-09T13:30:32;20.20;99.90
36800;DHT22;22752;51.960;5.886;2022-09-09T13:36:26;20.20;99.90
36800;DHT22;22752;51.960;5.886;2022-09-09T13:38:56;20.30;99.90
36800;DHT22;22752;51.960;5.886;2022-09-09T13:41:24;20.30;99.90
36800;DHT22;22752;51.960;5.886;2022-09-09T13:43:51;20.30;99.90
36800;DHT22;22752;51.960;5.886;2022-09-09T13:46:35;20.40;99.90
36800;DHT22;22752;51.960;5.886;2022-09-09T13:51:41;20.30;99.90
36800;DHT22;22752;51.960;5.886;2022-09-09T13:54:10;20.20;99.90
36800;DHT22;22752;51.960;5.886;2022-09-09T13:56:37;20.00;99.90
36800;DHT22;22752;51.960;5.886;2022-09-09T13:59:05;19.80;99.90
36800;DHT22;22752;51.960;5.886;2022-09-09T14:01:31;19.60;99.90
36800;DHT22;22752;51.960;5.886;2022-09-09T14:03:56;19.40;99.90
36800;DHT22;22752;51.960;5.886;2022-09-09T14:06:22;19.30;99.90
36800;DHT22;22752;51.960;5.886;2022-09-09T14:08:49;19.20;99.90
36800;DHT22;22752;51.960;5.886;2022-09-09T14:11:16;19.30;99.90
36800;DHT22;22752;51.960;5.886;2022-09-09T14:13:42;19.40;99.90
36800;DHT22;22752;51.960;5.886;2022-09-09T14:16:08;19.50;99.90
36800;DHT22;22752;51.960;5.886;2022-09-09T14:18:33;19.70;99.90
36800;DHT22;22752;51.960;5.886;2022-09-09T14:20:59;19.70;99.90
36800;DHT22;22752;51.960;5.886;2022-09-09T14:23:25;19.70;99.90
36800;DHT22;22752;51.960;5.886;2022-09-09T14:25:51;19.70;99.90
36800;DHT22;22752;51.960;5.886;2022-09-09T14:28:17;19.60;99.90
36800;DHT22;22752;51.960;5.886;2022-09-09T14:30:43;19.50;99.90
36800;DHT22;22752;51.960;5.886;2022-09-09T14:33:14;19.40;99.90
36800;DHT22;22752;51.960;5.886;2022-09-09T14:35:41;19.40;99.90
36800;DHT22;22752;51.960;5.886;2022-09-09T14:38:07;19.30;99.90
36800;DHT22;22752;51.960;5.886;2022-09-09T14:40:35;19.30;99.90
36800;DHT22;22752;51.960;5.886;2022-09-09T14:43:01;19.40;99.90
36800;DHT22;22752;51.960;5.886;2022-09-09T14:45:27;19.50;99.90
36800;DHT22;22752;51.960;5.886;2022-09-09T14:47:53;19.60;99.90
36800;DHT22;22752;51.960;5.886;2022-09-09T14:50:20;19.70;99.90
36800;DHT22;22752;51.960;5.886;2022-09-09T14:52:46;19.70;99.90
36800;DHT22;22752;51.960;5.886;2022-09-09T14:55:12;19.80;99.90
36800;DHT22;22752;51.960;5.886;2022-09-09T14:57:38;19.90;99.90
36800;DHT22;22752;51.960;5.886;2022-09-09T15:00:05;20.10;99.90
36800;DHT22;22752;51.960;5.886;2022-09-09T15:02:31;20.20;99.90
36800;DHT22;22752;51.960;5.886;2022-09-09T15:04:57;20.30;99.90
36800;DHT22;22752;51.960;5.886;2022-09-09T15:07:23;20.30;99.90
36800;DHT22;22752;51.960;5.886;2022-09-09T15:09:49;20.30;99.90
36800;DHT22;22752;51.960;5.886;2022-09-09T15:12:15;20.30;99.90
36800;DHT22;22752;51.960;5.886;2022-09-09T15:14:42;20.20;99.90
36800;DHT22;22752;51.960;5.886;2022-09-09T15:17:08;20.10;99.90
36800;DHT22;22752;51.960;5.886;2022-09-09T15:19:34;20.10;99.90
36800;DHT22;22752;51.960;5.886;2022-09-09T15:22:00;20.10;99.90
36800;DHT22;22752;51.960;5.886;2022-09-09T15:24:25;20.00;99.90
36800;DHT22;22752;51.960;5.886;2022-09-09T15:26:52;19.90;99.90
36800;DHT22;22752;51.960;5.886;2022-09-09T15:29:17;19.90;99.90
36800;DHT22;22752;51.960;5.886;2022-09-09T15:31:44;19.80;99.90
36800;DHT22;22752;51.960;5.886;2022-09-09T15:34:09;19.80;99.90
36800;DHT22;22752;51.960;5.886;2022-09-09T15:36:40;19.70;99.90
36800;DHT22;22752;51.960;5.886;2022-09-09T15:39:08;19.50;99.90
36800;DHT22;22752;51.960;5.886;2022-09-09T15:41:38;19.50;99.90
36800;DHT22;22752;51.960;5.886;2022-09-09T15:44:03;19.40;99.90
36800;DHT22;22752;51.960;5.886;2022-09-09T15:46:30;19.40;99.90
36800;DHT22;22752;51.960;5.886;2022-09-09T15:49:02;19.30;99.90
36800;DHT22;22752;51.960;5.886;2022-09-09T15:51:29;19.30;99.90
36800;DHT22;22752;51.960;5.886;2022-09-09T15:53:55;19.30;99.90
36800;DHT22;22752;51.960;5.886;2022-09-09T15:56:22;19.30;99.90
36800;DHT22;22752;51.960;5.886;2022-09-09T15:58:48;19.30;99.90
36800;DHT22;22752;51.960;5.886;2022-09-09T16:01:13;19.20;99.90
36800;DHT22;22752;51.960;5.886;2022-09-09T16:03:41;19.10;99.90
36800;DHT22;22752;51.960;5.886;2022-09-09T16:06:08;19.10;99.90
36800;DHT22;22752;51.960;5.886;2022-09-09T16:08:40;19.00;99.90
36800;DHT22;22752;51.960;5.886;2022-09-09T16:11:14;18.80;99.90
36800;DHT22;22752;51.960;5.886;2022-09-09T16:13:42;18.50;99.90
36800;DHT22;22752;51.960;5.886;2022-09-09T16:16:10;18.20;99.90
36800;DHT22;22752;51.960;5.886;2022-09-09T16:18:37;18.10;99.90
36800;DHT22;22752;51.960;5.886;2022-09-09T16:21:04;18.00;99.90
36800;DHT22;22752;51.960;5.886;2022-09-09T16:23:34;17.90;99.90
36800;DHT22;22752;51.960;5.886;2022-09-09T16:26:00;17.90;99.90
36800;DHT22;22752;51.960;5.886;2022-09-09T16:28:26;18.00;99.90
36800;DHT22;22752;51.960;5.886;2022-09-09T16:30:52;18.00;99.90
36800;DHT22;22752;51.960;5.886;2022-09-09T16:33:18;18.00;99.90
36800;DHT22;22752;51.960;5.886;2022-09-09T16:35:44;18.10;99.90
36800;DHT22;22752;51.960;5.886;2022-09-09T16:38:10;18.20;99.90
36800;DHT22;22752;51.960;5.886;2022-09-09T16:40:39;18.10;99.90
36800;DHT22;22752;51.960;5.886;2022-09-09T16:43:07;18.10;99.90
36800;DHT22;22752;51.960;5.886;2022-09-09T16:45:33;18.10;99.90
36800;DHT22;22752;51.960;5.886;2022-09-09T16:47:59;18.10;99.90
36800;DHT22;22752;51.960;5.886;2022-09-09T16:50:26;18.10;99.90
36800;DHT22;22752;51.960;5.886;2022-09-09T16:52:52;18.00;99.90
36800;DHT22;22752;51.960;5.886;2022-09-09T16:55:18;17.90;99.90
36800;DHT22;22752;51.960;5.886;2022-09-09T16:57:46;17.90;99.90
36800;DHT22;22752;51.960;5.886;2022-09-09T17:00:14;17.70;99.90
36800;DHT22;22752;51.960;5.886;2022-09-09T17:02:42;17.70;99.90
36800;DHT22;22752;51.960;5.886;2022-09-09T17:05:08;17.70;99.90
36800;DHT22;22752;51.960;5.886;2022-09-09T17:07:34;17.60;99.90
36800;DHT22;22752;51.960;5.886;2022-09-09T17:10:01;17.60;99.90
36800;DHT22;22752;51.960;5.886;2022-09-09T17:12:26;17.60;99.90
36800;DHT22;22752;51.960;5.886;2022-09-09T17:14:52;17.60;99.90
36800;DHT22;22752;51.960;5.886;2022-09-09T17:17:17;17.60;99.90
36800;DHT22;22752;51.960;5.886;2022-09-09T17:19:43;17.60;99.90
36800;DHT22;22752;51.960;5.886;2022-09-09T17:22:09;17.70;99.90
36800;DHT22;22752;51.960;5.886;2022-09-09T17:24:35;17.70;99.90
36800;DHT22;22752;51.960;5.886;2022-09-09T17:27:00;17.70;99.90
36800;DHT22;22752;51.960;5.886;2022-09-09T17:29:27;17.60;99.90
36800;DHT22;22752;51.960;5.886;2022-09-09T17:31:53;17.60;99.90
36800;DHT22;22752;51.960;5.886;2022-09-09T17:34:20;17.50;99.90
36800;DHT22;22752;51.960;5.886;2022-09-09T17:36:46;17.40;99.90
36800;DHT22;22752;51.960;5.886;2022-09-09T17:39:12;17.30;99.90
36800;DHT22;22752;51.960;5.886;2022-09-09T17:41:39;17.20;99.90